sensor_id;sensor_type;location;lat;lon;timestamp;temperature;humidity
57719;DHT22;43561;50.090;18.522;2023-07-29T00:01:50;18.50;99.90
57719;DHT22;43561;50.090;18.522;2023-07-29T00:11:52;18.40;99.90
57719;DHT22;43561;50.090;18.522;2023-07-29T00:21:54;18.40;99.90
57719;DHT22;43561;50.090;18.522;2023-07-29T00:31:56;18.30;99.90
57719;DHT22;43561;50.090;18.522;2023-07-29T00:41:58;18.30;99.90
57719;DHT22;43561;50.090;18.522;2023-07-29T00:52:00;18.40;99.90
57719;DHT22;43561;50.090;18.522;2023-07-29T01:02:03;18.40;99.90
57719;DHT22;43561;50.090;18.522;2023-07-29T01:12:22;18.30;99.90
57719;DHT22;43561;50.090;18.522;2023-07-29T01:22:26;18.20;99.90
57719;DHT22;43561;50.090;18.522;2023-07-29T01:42:36;18.10;99.90
57719;DHT22;43561;50.090;18.522;2023-07-29T01:52:38;18.00;99.90
57719;DHT22;43561;50.090;18.522;2023-07-29T02:02:41;17.90;99.90
57719;DHT22;43561;50.090;18.522;2023-07-29T02:12:43;17.80;99.90
57719;DHT22;43561;50.090;18.522;2023-07-29T02:22:45;17.60;99.90
57719;DHT22;43561;50.090;18.522;2023-07-29T02:32:47;17.40;99.90
57719;DHT22;43561;50.090;18.522;2023-07-29T02:42:50;17.20;99.90
57719;DHT22;43561;50.090;18.522;2023-07-29T02:52:52;17.10;99.90
57719;DHT22;43561;50.090;18.522;2023-07-29T03:02:54;17.00;99.90
57719;DHT22;43561;50.090;18.522;2023-07-29T03:12:56;17.00;99.90
57719;DHT22;43561;50.090;18.522;2023-07-29T03:23:04;16.90;99.90
57719;DHT22;43561;50.090;18.522;2023-07-29T03:33:18;16.90;99.90
57719;DHT22;43561;50.090;18.522;2023-07-29T03:43:21;16.90;99.90
57719;DHT22;43561;50.090;18.522;2023-07-29T03:53:23;17.10;99.90
57719;DHT22;43561;50.090;18.522;2023-07-29T04:03:25;17.30;99.90
57719;DHT22;43561;50.090;18.522;2023-07-29T04:13:28;17.50;99.90
57719;DHT22;43561;50.090;18.522;2023-07-29T04:23:35;17.60;99.90
57719;DHT22;43561;50.090;18.522;2023-07-29T04:33:37;17.80;99.90
57719;DHT22;43561;50.090;18.522;2023-07-29T04:43:39;18.20;99.90
57719;DHT22;43561;50.090;18.522;2023-07-29T04:53:42;18.80;99.90
57719;DHT22;43561;50.090;18.522;2023-07-29T05:03:45;20.60;99.90
57719;DHT22;43561;50.090;18.522;2023-07-29T05:13:47;22.20;99.90
57719;DHT22;43561;50.090;18.522;2023-07-29T05:23:49;22.60;99.90
57719;DHT22;43561;50.090;18.522;2023-07-29T05:33:52;22.40;99.90
57719;DHT22;43561;50.090;18.522;2023-07-29T05:43:54;21.90;99.90
57719;DHT22;43561;50.090;18.522;2023-07-29T05:53:56;23.40;99.90
57719;DHT22;43561;50.090;18.522;2023-07-29T06:03:58;24.60;99.90
57719;DHT22;43561;50.090;18.522;2023-07-29T06:14:00;25.60;99.90
57719;DHT22;43561;50.090;18.522;2023-07-29T06:24:02;25.70;99.90
57719;DHT22;43561;50.090;18.522;2023-07-29T06:34:04;25.80;99.90
57719;DHT22;43561;50.090;18.522;2023-07-29T06:44:05;25.80;99.90
57719;DHT22;43561;50.090;18.522;2023-07-29T06:54:07;25.60;99.90
57719;DHT22;43561;50.090;18.522;2023-07-29T07:04:09;25.80;99.90
57719;DHT22;43561;50.090;18.522;2023-07-29T07:14:12;26.90;99.90
57719;DHT22;43561;50.090;18.522;2023-07-29T07:24:14;27.40;95.80
57719;DHT22;43561;50.090;18.522;2023-07-29T07:34:16;28.20;91.20
57719;DHT22;43561;50.090;18.522;2023-07-29T07:44:18;27.90;90.50
57719;DHT22;43561;50.090;18.522;2023-07-29T07:54:20;27.10;91.00
57719;DHT22;43561;50.090;18.522;2023-07-29T08:04:22;27.60;89.40
57719;DHT22;43561;50.090;18.522;2023-07-29T08:14:23;27.50;86.50
57719;DHT22;43561;50.090;18.522;2023-07-29T08:24:25;27.20;90.50
57719;DHT22;43561;50.090;18.522;2023-07-29T08:34:33;26.80;90.20
57719;DHT22;43561;50.090;18.522;2023-07-29T08:44:45;27.50;91.90
57719;DHT22;43561;50.090;18.522;2023-07-29T08:54:47;28.10;88.20
57719;DHT22;43561;50.090;18.522;2023-07-29T09:04:49;28.20;77.60
57719;DHT22;43561;50.090;18.522;2023-07-29T09:14:52;28.60;77.80
57719;DHT22;43561;50.090;18.522;2023-07-29T09:24:57;28.90;76.00
57719;DHT22;43561;50.090;18.522;2023-07-29T09:35:00;28.50;74.20
57719;DHT22;43561;50.090;18.522;2023-07-29T09:45:02;28.90;76.40
57719;DHT22;43561;50.090;18.522;2023-07-29T09:55:05;28.90;72.60
57719;DHT22;43561;50.090;18.522;2023-07-29T10:05:08;29.20;76.00
57719;DHT22;43561;50.090;18.522;2023-07-29T10:15:14;28.90;74.70
57719;DHT22;43561;50.090;18.522;2023-07-29T10:25:18;28.60;75.10
57719;DHT22;43561;50.090;18.522;2023-07-29T10:35:23;28.30;73.70
57719;DHT22;43561;50.090;18.522;2023-07-29T10:45:25;28.60;73.40
57719;DHT22;43561;50.090;18.522;2023-07-29T10:55:37;28.00;74.60
57719;DHT22;43561;50.090;18.522;2023-07-29T11:05:50;28.20;75.10
57719;DHT22;43561;50.090;18.522;2023-07-29T11:15:54;28.60;75.00
57719;DHT22;43561;50.090;18.522;2023-07-29T11:25:56;28.50;72.90
57719;DHT22;43561;50.090;18.522;2023-07-29T11:35:58;28.70;71.90
57719;DHT22;43561;50.090;18.522;2023-07-29T11:46:01;28.70;69.10
57719;DHT22;43561;50.090;18.522;2023-07-29T11:56:11;28.30;70.80
57719;DHT22;43561;50.090;18.522;2023-07-29T12:06:14;28.40;69.50
57719;DHT22;43561;50.090;18.522;2023-07-29T12:16:17;28.60;67.80
57719;DHT22;43561;50.090;18.522;2023-07-29T12:26:19;28.70;68.40
57719;DHT22;43561;50.090;18.522;2023-07-29T12:36:21;28.60;68.40
57719;DHT22;43561;50.090;18.522;2023-07-29T12:46:29;28.40;69.10
57719;DHT22;43561;50.090;18.522;2023-07-29T12:56:32;28.40;68.00
57719;DHT22;43561;50.090;18.522;2023-07-29T13:06:34;28.00;68.20
57719;DHT22;43561;50.090;18.522;2023-07-29T13:16:37;27.50;70.00
57719;DHT22;43561;50.090;18.522;2023-07-29T13:26:39;27.50;68.60
57719;DHT22;43561;50.090;18.522;2023-07-29T13:36:41;27.50;69.50
57719;DHT22;43561;50.090;18.522;2023-07-29T13:46:43;27.90;71.40
57719;DHT22;43561;50.090;18.522;2023-07-29T13:56:45;27.20;71.10
57719;DHT22;43561;50.090;18.522;2023-07-29T14:06:47;27.30;72.50
57719;DHT22;43561;50.090;18.522;2023-07-29T14:16:57;27.20;74.50
57719;DHT22;43561;50.090;18.522;2023-07-29T14:26:59;27.40;75.30
57719;DHT22;43561;50.090;18.522;2023-07-29T14:37:02;27.20;74.30
57719;DHT22;43561;50.090;18.522;2023-07-29T14:47:04;27.00;75.40
57719;DHT22;43561;50.090;18.522;2023-07-29T14:57:06;27.20;75.80
57719;DHT22;43561;50.090;18.522;2023-07-29T15:07:08;27.30;74.80
57719;DHT22;43561;50.090;18.522;2023-07-29T15:17:10;27.10;76.40
57719;DHT22;43561;50.090;18.522;2023-07-29T15:27:13;26.70;75.50
57719;DHT22;43561;50.090;18.522;2023-07-29T15:37:15;26.30;76.70
57719;DHT22;43561;50.090;18.522;2023-07-29T15:47:17;26.20;78.50
57719;DHT22;43561;50.090;18.522;2023-07-29T15:57:19;26.00;78.10
57719;DHT22;43561;50.090;18.522;2023-07-29T16:07:21;25.80;78.50
57719;DHT22;43561;50.090;18.522;2023-07-29T16:17:23;25.50;78.80
57719;DHT22;43561;50.090;18.522;2023-07-29T16:27:26;25.40;79.80
57719;DHT22;43561;50.090;18.522;2023-07-29T16:37:34;23.70;87.10
57719;DHT22;43561;50.090;18.522;2023-07-29T16:47:36;22.90;98.00
57719;DHT22;43561;50.090;18.522;2023-07-29T16:57:39;22.70;99.90
57719;DHT22;43561;50.090;18.522;2023-07-29T17:07:40;22.80;99.90
57719;DHT22;43561;50.090;18.522;2023-07-29T17:17:45;22.70;99.90
57719;DHT22;43561;50.090;18.522;2023-07-29T17:27:47;22.50;99.90
57719;DHT22;43561;50.090;18.522;2023-07-29T17:37:49;22.40;99.90
57719;DHT22;43561;50.090;18.522;2023-07-29T17:47:51;22.20;99.90
57719;DHT22;43561;50.090;18.522;2023-07-29T17:57:53;22.10;99.90
57719;DHT22;43561;50.090;18.522;2023-07-29T18:07:55;21.90;99.90
57719;DHT22;43561;50.090;18.522;2023-07-29T18:17:57;21.80;99.90
57719;DHT22;43561;50.090;18.522;2023-07-29T18:28:00;21.50;99.90
57719;DHT22;43561;50.090;18.522;2023-07-29T18:38:02;21.20;99.90
57719;DHT22;43561;50.090;18.522;2023-07-29T18:48:05;21.00;99.90
57719;DHT22;43561;50.090;18.522;2023-07-29T18:58:10;20.70;99.90
57719;DHT22;43561;50.090;18.522;2023-07-29T19:08:12;20.50;99.90
57719;DHT22;43561;50.090;18.522;2023-07-29T19:18:13;20.40;99.90
57719;DHT22;43561;50.090;18.522;2023-07-29T19:28:16;20.10;99.90
57719;DHT22;43561;50.090;18.522;2023-07-29T19:38:18;20.00;99.90
57719;DHT22;43561;50.090;18.522;2023-07-29T19:48:20;19.90;99.90
57719;DHT22;43561;50.090;18.522;2023-07-29T19:58:25;19.80;99.90
57719;DHT22;43561;50.090;18.522;2023-07-29T20:08:26;19.80;99.90
57719;DHT22;43561;50.090;18.522;2023-07-29T20:18:28;19.70;99.90
57719;DHT22;43561;50.090;18.522;2023-07-29T20:28:30;19.60;99.90
57719;DHT22;43561;50.090;18.522;2023-07-29T20:38:33;19.50;99.90
57719;DHT22;43561;50.090;18.522;2023-07-29T20:48:35;19.50;99.90
57719;DHT22;43561;50.090;18.522;2023-07-29T20:58:39;19.40;99.90
57719;DHT22;43561;50.090;18.522;2023-07-29T21:08:40;19.40;99.90
57719;DHT22;43561;50.090;18.522;2023-07-29T21:18:43;19.50;99.90
57719;DHT22;43561;50.090;18.522;2023-07-29T21:28:45;19.60;99.90
57719;DHT22;43561;50.090;18.522;2023-07-29T21:38:47;19.50;99.90
57719;DHT22;43561;50.090;18.522;2023-07-29T21:48:50;19.40;99.90
57719;DHT22;43561;50.090;18.522;2023-07-29T21:58:52;19.30;99.90
57719;DHT22;43561;50.090;18.522;2023-07-29T22:08:56;19.20;99.90
57719;DHT22;43561;50.090;18.522;2023-07-29T22:18:58;19.20;99.90
57719;DHT22;43561;50.090;18.522;2023-07-29T22:29:00;19.30;99.90
57719;DHT22;43561;50.090;18.522;2023-07-29T22:39:02;19.30;99.90
57719;DHT22;43561;50.090;18.522;2023-07-29T22:49:04;19.40;99.90
57719;DHT22;43561;50.090;18.522;2023-07-29T22:59:07;19.40;99.90
57719;DHT22;43561;50.090;18.522;2023-07-29T23:09:09;19.40;99.90
57719;DHT22;43561;50.090;18.522;2023-07-29T23:19:10;19.40;99.90
57719;DHT22;43561;50.090;18.522;2023-07-29T23:29:12;19.50;99.90
57719;DHT22;43561;50.090;18.522;2023-07-29T23:39:14;19.50;99.90
57719;DHT22;43561;50.090;18.522;2023-07-29T23:49:17;19.50;99.90
57719;DHT22;43561;50.090;18.522;2023-07-29T23:59:22;19.40;99.90
